Time;durP1;ratioP1;P1;durP2;ratioP2;P2;SDS_P1;SDS_P2;PMS_P1;PMS_P2;Temp;Humidity;BMP_temperature;BMP_pressure;BME280_temperature;BME280_humidity;BME280_pressure;Samples;Min_cycle;Max_cycle;Signal;HPM_P1;HPM_P2
2022/10/04 00:01:51;;;;;;;12.18;7.60;;;;;;;11.01;100.00;102500.63;7374778;19;20014;-74
2022/10/04 00:04:26;;;;;;;21.73;9.30;;;;;;;10.99;100.00;102499.69;7375694;19;20382;-70
2022/10/04 00:07:08;;;;;;;18.45;8.52;;;;;;;10.94;100.00;102490.75;7371940;19;20015;-70
2022/10/04 00:09:44;;;;;;;13.02;7.72;;;;;;;10.92;100.00;102487.16;7374903;19;20007;-70
2022/10/04 00:12:20;;;;;;;15.43;8.63;;;;;;;10.88;100.00;102488.78;7374177;19;20557;-70
2022/10/04 00:14:52;;;;;;;16.60;8.38;;;;;;;10.84;100.00;102480.72;7370462;19;20011;-70
2022/10/04 00:17:26;;;;;;;15.43;8.23;;;;;;;10.81;100.00;102478.88;7372892;19;20010;-70
2022/10/04 00:19:57;;;;;;;15.20;8.55;;;;;;;10.78;100.00;102482.28;7370583;19;20014;-69
2022/10/04 00:22:30;;;;;;;15.02;8.18;;;;;;;10.75;100.00;102476.91;7371937;19;20010;-69
2022/10/04 00:25:20;;;;;;;15.38;9.70;;;;;;;10.74;100.00;102482.09;7369620;19;20030;-71
2022/10/04 00:28:27;;;;;;;13.40;7.50;;;;;;;10.72;100.00;102476.78;7375210;19;20017;-70
2022/10/04 00:31:22;;;;;;;19.35;9.50;;;;;;;10.77;100.00;102469.09;7374387;19;20044;-69
2022/10/04 00:33:53;;;;;;;;;;;;;;;10.78;100.00;102466.53;7372899;19;20015;-73
2022/10/04 00:36:48;;;;;;;16.70;9.38;;;;;;;10.75;100.00;102469.03;7373313;19;19921;-74
2022/10/04 00:39:44;;;;;;;18.05;8.43;;;;;;;10.73;100.00;102461.94;7369805;19;20010;-73
2022/10/04 00:42:55;;;;;;;15.63;8.13;;;;;;;10.69;100.00;102471.44;7373156;19;20385;-69
2022/10/04 00:45:31;;;;;;;18.90;9.60;;;;;;;10.71;100.00;102480.25;7368959;19;20022;-69
2022/10/04 00:48:45;;;;;;;17.63;9.40;;;;;;;10.69;100.00;102483.66;7371991;19;20011;-69
2022/10/04 00:51:24;;;;;;;17.33;9.05;;;;;;;10.65;100.00;102480.00;7368452;19;20010;-70
2022/10/04 00:53:59;;;;;;;18.40;10.68;;;;;;;10.61;100.00;102479.84;7368456;19;20010;-69
2022/10/04 00:56:38;;;;;;;17.92;9.50;;;;;;;10.55;100.00;102471.72;7373050;19;20007;-70
2022/10/04 00:59:28;;;;;;;14.30;8.93;;;;;;;10.49;100.00;102475.00;7369610;19;20014;-70
2022/10/04 01:02:02;;;;;;;17.80;10.60;;;;;;;10.45;100.00;102467.84;7365915;19;20397;-70
2022/10/04 01:04:50;;;;;;;18.63;10.50;;;;;;;10.46;100.00;102461.75;7365983;19;20373;-70
2022/10/04 01:07:25;;;;;;;23.02;11.85;;;;;;;10.43;100.00;102459.91;7366486;19;20014;-70
2022/10/04 01:09:59;;;;;;;18.35;11.30;;;;;;;10.40;100.00;102449.31;7370662;19;20011;-70
2022/10/04 01:12:42;;;;;;;15.27;10.25;;;;;;;10.38;100.00;102447.47;7371981;19;20010;-70
2022/10/04 01:15:18;;;;;;;22.98;11.45;;;;;;;10.43;100.00;102443.28;7369705;19;20011;-70
2022/10/04 01:18:10;;;;;;;20.55;11.43;;;;;;;10.44;100.00;102439.81;7369008;19;20048;-70
2022/10/04 01:20:42;;;;;;;21.33;10.07;;;;;;;10.38;100.00;102447.47;7371227;19;20027;-70
2022/10/04 01:23:33;;;;;;;20.30;12.25;;;;;;;10.37;100.00;102437.81;7374393;19;20010;-70
2022/10/04 01:26:05;;;;;;;17.20;10.35;;;;;;;10.32;100.00;102440.28;7372842;19;20034;-70
2022/10/04 01:28:37;;;;;;;18.10;10.10;;;;;;;10.27;100.00;102433.94;7374795;19;20482;-70
2022/10/04 01:31:07;;;;;;;16.23;11.10;;;;;;;10.22;100.00;102432.88;7374723;19;20022;-70
2022/10/04 01:33:38;;;;;;;19.02;11.40;;;;;;;10.18;100.00;102419.53;7375414;19;20022;-70
2022/10/04 01:36:08;;;;;;;22.58;11.80;;;;;;;10.09;100.00;102410.47;7372412;19;20021;-70
2022/10/04 01:38:41;;;;;;;17.65;11.45;;;;;;;10.13;100.00;102419.34;7374949;19;20010;-70
2022/10/04 01:41:13;;;;;;;22.13;12.32;;;;;;;10.11;100.00;102406.19;7374138;19;20011;-70
2022/10/04 01:43:45;;;;;;;21.70;11.57;;;;;;;10.13;100.00;102396.66;7374535;19;20010;-70
2022/10/04 01:46:21;;;;;;;24.42;13.65;;;;;;;10.16;100.00;102398.50;7371983;19;20019;-70
2022/10/04 01:48:50;;;;;;;20.73;11.30;;;;;;;10.13;100.00;102386.16;7369808;19;20006;-70
2022/10/04 01:51:25;;;;;;;22.83;12.15;;;;;;;10.08;100.00;102379.84;7370803;19;20630;-73
2022/10/04 01:54:01;;;;;;;21.60;11.57;;;;;;;10.07;100.00;102377.16;7365443;19;20014;-73
2022/10/04 01:56:40;;;;;;;18.42;11.55;;;;;;;10.04;100.00;102374.44;7359996;19;20018;-73
2022/10/04 01:59:17;;;;;;;23.42;11.45;;;;;;;10.02;100.00;102371.75;7366602;19;20014;-73
2022/10/04 02:01:51;;;;;;;17.83;10.35;;;;;;;9.98;100.00;102374.19;7367478;19;20006;-73
2022/10/04 02:04:24;;;;;;;20.33;10.93;;;;;;;9.89;100.00;102353.75;7365255;19;20017;-74
2022/10/04 02:06:57;;;;;;;18.40;11.73;;;;;;;9.87;100.00;102359.75;7369882;19;20010;-72
2022/10/04 02:09:34;;;;;;;23.63;12.75;;;;;;;9.93;100.00;102352.13;7367671;19;20014;-73
2022/10/04 02:12:05;;;;;;;20.98;11.55;;;;;;;9.89;100.00;102348.50;7366464;19;20010;-73
2022/10/04 02:14:36;;;;;;;23.00;12.32;;;;;;;9.89;100.00;102334.50;7358878;19;20014;-73
2022/10/04 02:17:09;;;;;;;22.35;12.77;;;;;;;9.89;100.00;102330.16;7362560;19;20506;-74
2022/10/04 02:19:42;;;;;;;21.33;12.30;;;;;;;9.90;100.00;102320.56;7367713;19;20164;-73
2022/10/04 02:22:13;;;;;;;29.23;13.95;;;;;;;9.88;100.00;102310.03;7365390;19;20010;-73
2022/10/04 02:24:48;;;;;;;25.10;14.20;;;;;;;9.91;100.00;102304.91;7366477;19;20038;-74
2022/10/04 02:27:18;;;;;;;22.38;14.60;;;;;;;9.94;100.00;102305.03;7370549;19;20034;-73
2022/10/04 02:29:48;;;;;;;27.73;15.40;;;;;;;9.90;100.00;102308.34;7368353;19;20018;-74
2022/10/04 02:35:16;;;;;;;25.83;14.18;;;;;;;9.85;100.00;102309.91;7367578;19;20234;-74
2022/10/04 02:37:46;;;;;;;31.60;14.57;;;;;;;9.83;100.00;102304.59;7373376;19;20017;-74
2022/10/04 02:40:24;;;;;;;24.55;12.68;;;;;;;9.79;100.00;102300.06;7376880;19;20364;-73
2022/10/04 02:43:01;;;;;;;23.08;12.75;;;;;;;9.73;100.00;102301.56;7377545;19;20011;-74
2022/10/04 02:45:41;;;;;;;25.35;13.13;;;;;;;9.66;100.00;102297.78;7377030;19;20276;-74
2022/10/04 02:48:24;;;;;;;28.52;14.15;;;;;;;9.65;100.00;102290.78;7378071;19;20010;-73
2022/10/04 02:50:57;;;;;;;25.60;12.80;;;;;;;9.60;100.00;102273.06;7374833;19;20027;-74
2022/10/04 02:53:32;;;;;;;23.13;12.67;;;;;;;9.56;100.00;102273.78;7371931;19;20444;-69
2022/10/04 02:56:07;;;;;;;21.67;11.48;;;;;;;9.51;100.00;102271.88;7376272;19;20014;-70
2022/10/04 02:58:41;;;;;;;27.92;13.98;;;;;;;9.49;100.00;102281.41;7373088;19;20015;-70
2022/10/04 03:01:17;;;;;;;;;;;;;;;9.45;100.00;102276.88;7372794;19;20014;-70
2022/10/04 03:03:49;;;;;;;23.55;12.77;;;;;;;9.46;100.00;102280.38;7371028;19;19966;-70
2022/10/04 03:06:21;;;;;;;30.27;14.77;;;;;;;9.42;100.00;102279.34;7374492;19;20010;-71
2022/10/04 03:08:54;;;;;;;29.02;13.52;;;;;;;9.37;100.00;102275.66;7376207;19;20011;-70
2022/10/04 03:11:32;;;;;;;26.70;13.63;;;;;;;9.34;100.00;102270.34;7376234;19;20955;-70
2022/10/04 03:14:04;;;;;;;23.95;13.32;;;;;;;9.31;100.00;102264.06;7374346;19;20007;-70
2022/10/04 03:16:39;;;;;;;34.30;15.77;;;;;;;9.40;100.00;102261.78;7371758;19;20025;-74
2022/10/04 03:19:11;;;;;;;26.85;13.98;;;;;;;9.42;100.00;102244.44;7371620;19;20010;-74
2022/10/04 03:21:44;;;;;;;29.40;14.32;;;;;;;9.45;100.00;102241.94;7371691;19;20797;-73
2022/10/04 03:24:19;;;;;;;25.40;13.43;;;;;;;9.46;100.00;102246.34;7374691;19;20504;-71
2022/10/04 03:26:56;;;;;;;29.45;14.00;;;;;;;9.49;100.00;102247.34;7374223;19;20018;-72
2022/10/04 03:29:29;;;;;;;30.98;13.98;;;;;;;9.56;100.00;102244.97;7373292;19;20037;-72
2022/10/04 03:32:01;;;;;;;27.90;12.48;;;;;;;9.61;100.00;102232.97;7374591;19;20017;-72
2022/10/04 03:34:36;;;;;;;39.67;14.88;;;;;;;9.58;100.00;102238.97;7375664;19;20097;-72
2022/10/04 03:37:09;;;;;;;27.33;12.77;;;;;;;9.56;100.00;102240.63;7371356;19;20672;-72
2022/10/04 03:39:43;;;;;;;26.42;13.35;;;;;;;9.61;100.00;102225.09;7372070;19;20014;-72
2022/10/04 03:42:17;;;;;;;31.30;14.15;;;;;;;9.70;100.00;102218.50;7372714;19;20011;-70
2022/10/04 03:44:49;;;;;;;26.75;14.77;;;;;;;9.73;100.00;102222.97;7374291;19;20011;-70
2022/10/04 03:47:23;;;;;;;29.55;13.75;;;;;;;9.71;100.00;102222.00;7370322;19;20135;-70
2022/10/04 03:49:54;;;;;;;;;;;;;;;9.67;100.00;102220.09;7372421;19;20017;-71
2022/10/04 03:52:27;;;;;;;27.70;14.23;;;;;;;9.67;100.00;102233.19;7370133;19;19918;-70
2022/10/04 03:55:03;;;;;;;30.85;14.38;;;;;;;9.64;100.00;102227.84;7371946;19;20510;-71
2022/10/04 03:57:38;;;;;;;27.80;13.02;;;;;;;9.59;100.00;102226.75;7367971;19;20014;-70
2022/10/04 04:00:09;;;;;;;25.40;12.63;;;;;;;9.61;100.00;102231.22;7370163;19;20262;-70
2022/10/04 04:02:45;;;;;;;25.85;13.02;;;;;;;9.54;100.00;102234.44;7370635;19;20494;-73
2022/10/04 04:05:21;;;;;;;25.30;11.82;;;;;;;9.46;100.00;102234.13;7370206;19;20060;-72
2022/10/04 04:08:00;;;;;;;25.98;12.43;;;;;;;9.39;100.00;102237.34;7368070;19;20007;-72
2022/10/04 04:10:32;;;;;;;29.40;13.20;;;;;;;9.47;100.00;102230.69;7370861;19;20046;-72
2022/10/04 04:13:12;;;;;;;25.80;11.73;;;;;;;9.42;100.00;102231.34;7372012;19;20018;-72
2022/10/04 04:15:44;;;;;;;22.80;11.73;;;;;;;9.39;100.00;102232.09;7368594;19;20010;-72
2022/10/04 04:18:18;;;;;;;28.25;12.45;;;;;;;9.43;100.00;102233.13;7368881;19;20014;-72
2022/10/04 04:20:50;;;;;;;24.35;12.13;;;;;;;9.51;100.00;102239.56;7372694;19;20011;-72
2022/10/04 04:23:25;;;;;;;22.67;12.23;;;;;;;9.47;100.00;102240.25;7368552;19;20495;-72
2022/10/04 04:26:00;;;;;;;28.75;13.68;;;;;;;9.51;100.00;102243.06;7372942;19;20011;-70
2022/10/04 04:28:36;;;;;;;25.80;11.90;;;;;;;9.55;100.00;102232.72;7371496;19;20018;-71
2022/10/04 04:31:11;;;;;;;27.38;13.93;;;;;;;9.59;100.00;102230.28;7376365;19;20464;-70
2022/10/04 04:33:47;;;;;;;32.08;13.85;;;;;;;9.62;100.00;102239.97;7372903;19;20561;-70
2022/10/04 04:36:17;;;;;;;27.75;14.90;;;;;;;9.67;100.00;102226.22;7375388;19;20206;-70
2022/10/04 04:41:32;;;;;;;27.10;14.30;;;;;;;9.64;100.00;102225.22;7373710;19;20018;-70
2022/10/04 04:44:05;;;;;;;29.45;13.80;;;;;;;9.69;100.00;102223.66;7373218;19;20026;-70
2022/10/04 04:46:35;;;;;;;28.17;14.93;;;;;;;9.77;100.00;102220.50;7373434;19;20709;-70
2022/10/04 04:49:06;;;;;;;28.42;13.02;;;;;;;9.74;100.00;102224.75;7373628;19;20042;-70
2022/10/04 04:51:37;;;;;;;26.92;14.07;;;;;;;9.70;100.00;102228.06;7374240;19;20015;-70
2022/10/04 04:54:08;;;;;;;27.48;12.57;;;;;;;9.68;100.00;102232.38;7367307;19;20013;-70
2022/10/04 04:56:39;;;;;;;28.23;14.80;;;;;;;9.68;100.00;102229.75;7364301;19;20022;-70
2022/10/04 04:59:13;;;;;;;27.52;14.07;;;;;;;9.66;100.00;102226.16;7369790;19;20014;-70
2022/10/04 05:01:45;;;;;;;24.88;12.38;;;;;;;9.68;100.00;102229.75;7368758;19;20007;-70
2022/10/04 05:04:21;;;;;;;26.33;13.10;;;;;;;9.68;100.00;102229.75;7371019;19;20033;-70
2022/10/04 05:07:05;;;;;;;26.25;12.70;;;;;;;9.64;100.00;102222.59;7370909;19;20014;-70
2022/10/04 05:09:37;;;;;;;25.73;12.35;;;;;;;9.64;100.00;102222.59;7368828;19;20015;-70
2022/10/04 05:12:11;;;;;;;26.13;13.50;;;;;;;9.63;100.00;102228.66;7366059;19;20011;-70
2022/10/04 05:14:48;;;;;;;27.90;12.98;;;;;;;9.63;100.00;102219.09;7369742;19;20014;-70
2022/10/04 05:17:21;;;;;;;26.58;13.18;;;;;;;9.60;100.00;102225.94;7369697;19;20013;-70
2022/10/04 05:19:52;;;;;;;27.40;13.30;;;;;;;9.58;100.00;102220.63;7368451;19;20018;-70
2022/10/04 05:22:25;;;;;;;27.73;12.93;;;;;;;9.58;100.00;102222.34;7368908;19;20014;-70
2022/10/04 05:24:59;;;;;;;24.60;12.27;;;;;;;9.54;100.00;102225.69;7367919;19;20020;-70
2022/10/04 05:27:36;;;;;;;28.35;11.40;;;;;;;9.49;100.00;102218.53;7369113;19;20006;-71
2022/10/04 05:30:16;;;;;;;26.67;12.73;;;;;;;9.49;100.00;102213.31;7369220;19;20018;-70
2022/10/04 05:32:57;;;;;;;24.52;11.80;;;;;;;9.48;100.00;102210.63;7366699;19;20006;-71
2022/10/04 05:35:28;;;;;;;28.58;12.57;;;;;;;9.46;100.00;102213.19;7365726;19;20013;-70
2022/10/04 05:38:07;;;;;;;29.15;12.88;;;;;;;9.46;100.00;102207.06;7365671;19;20021;-71
2022/10/04 05:40:46;;;;;;;27.27;12.30;;;;;;;9.46;100.00;102202.72;7365297;19;20022;-70
2022/10/04 05:43:26;;;;;;;33.22;13.93;;;;;;;9.43;100.00;102199.97;7366282;19;20010;-70
2022/10/04 05:46:27;;;;;;;30.50;14.45;;;;;;;9.41;100.00;102205.97;7366958;19;20017;-70
2022/10/04 05:48:59;;;;;;;28.13;13.75;;;;;;;9.37;100.00;102197.09;7369315;19;20007;-70
2022/10/04 05:51:31;;;;;;;35.07;12.67;;;;;;;9.38;100.00;102193.66;7370630;19;20014;-70
2022/10/04 05:54:03;;;;;;;23.40;12.05;;;;;;;9.39;100.00;102184.06;7366749;19;20014;-70
2022/10/04 05:56:51;;;;;;;41.47;14.98;;;;;;;9.46;100.00;102194.84;7367682;19;20063;-70
2022/10/04 05:59:38;;;;;;;28.98;14.75;;;;;;;9.53;100.00;102188.13;7364741;19;20003;-70
2022/10/04 06:02:23;;;;;;;32.13;14.25;;;;;;;9.47;100.00;102185.28;7364984;19;20007;-70
2022/10/04 06:05:11;;;;;;;26.92;14.80;;;;;;;9.44;100.00;102188.66;7368719;19;20010;-70
2022/10/04 06:07:44;;;;;;;35.50;14.68;;;;;;;9.46;100.00;102192.22;7372553;19;20074;-70
2022/10/04 06:10:49;;;;;;;35.90;15.15;;;;;;;9.47;100.00;102185.28;7376426;19;20010;-70
2022/10/04 06:13:34;;;;;;;31.27;14.55;;;;;;;9.47;100.00;102188.78;7374111;19;20011;-70
2022/10/04 06:16:16;;;;;;;35.65;15.82;;;;;;;9.45;100.00;102184.31;7376079;19;20395;-70
2022/10/04 06:19:10;;;;;;;30.58;15.25;;;;;;;9.46;100.00;102180.88;7375100;19;20010;-70
2022/10/04 06:21:57;;;;;;;31.00;14.05;;;;;;;9.41;100.00;102172.84;7375759;19;20110;-70
2022/10/04 06:24:31;;;;;;;38.53;15.88;;;;;;;9.45;100.00;102173.84;7375364;19;20007;-70
2022/10/04 06:27:04;;;;;;;32.72;15.90;;;;;;;9.38;100.00;102177.94;7376288;19;20014;-69
2022/10/04 06:29:37;;;;;;;;;;;;;;;9.37;100.00;102175.28;7375860;19;20063;-69
2022/10/04 06:32:31;;;;;;;36.05;15.02;;;;;;;9.34;100.00;102177.81;7371591;19;20302;-70
2022/10/04 06:35:41;;;;;;;34.03;15.95;;;;;;;9.31;100.00;102175.94;7368592;19;20011;-69
2022/10/04 06:38:33;;;;;;;32.85;16.05;;;;;;;9.32;100.00;102176.84;7370342;19;20010;-69
2022/10/04 06:41:16;;;;;;;31.25;15.00;;;;;;;9.30;100.00;102181.13;7372033;19;20565;-69
2022/10/04 06:43:59;;;;;;;35.28;16.10;;;;;;;9.32;100.00;102171.63;7371452;19;20014;-70
2022/10/04 06:46:36;;;;;;;34.53;15.52;;;;;;;9.39;100.00;102169.25;7374385;19;20010;-72
2022/10/04 06:49:36;;;;;;;35.17;16.95;;;;;;;9.43;100.00;102170.28;7374763;19;20017;-71
2022/10/04 06:52:33;;;;;;;32.78;15.60;;;;;;;9.48;100.00;102164.38;7368126;19;20029;-68
2022/10/04 06:55:29;;;;;;;35.60;15.00;;;;;;;9.54;100.00;102168.06;7370346;19;20011;-70
2022/10/04 06:58:19;;;;;;;32.33;15.10;;;;;;;9.60;100.00;102163.06;7370896;19;20011;-70
2022/10/04 07:00:55;;;;;;;34.67;15.40;;;;;;;9.65;100.00;102151.03;7376406;19;20014;-70
2022/10/04 07:03:29;;;;;;;35.67;16.67;;;;;;;9.71;100.00;102159.13;7377305;19;20048;-70
2022/10/04 07:06:03;;;;;;;34.63;15.30;;;;;;;9.77;100.00;102159.38;7377022;19;20021;-71
2022/10/04 07:08:46;;;;;;;34.60;16.52;;;;;;;9.91;100.00;102160.78;7374923;19;20006;-70
2022/10/04 07:11:24;;;;;;;38.90;16.48;;;;;;;9.99;100.00;102164.56;7377793;19;20493;-70
2022/10/04 07:13:59;;;;;;;34.83;14.93;;;;;;;10.12;100.00;102172.03;7375151;19;20021;-70
2022/10/04 07:16:40;;;;;;;36.30;16.65;;;;;;;10.26;100.00;102174.28;7371444;19;20466;-70
2022/10/04 07:19:28;;;;;;;30.85;15.55;;;;;;;10.35;100.00;102180.75;7373012;19;20041;-70
2022/10/04 07:22:04;;;;;;;33.15;15.93;;;;;;;10.47;100.00;102169.78;7376784;19;20014;-70
2022/10/04 07:24:48;;;;;;;40.42;16.77;;;;;;;10.61;100.00;102178.13;7377986;19;20090;-71
2022/10/04 07:27:21;;;;;;;33.33;15.87;;;;;;;10.69;100.00;102181.91;7377327;19;20120;-71
2022/10/04 07:29:54;;;;;;;39.28;16.42;;;;;;;10.75;100.00;102183.00;7375835;19;20522;-71
2022/10/04 07:32:27;;;;;;;30.15;14.50;;;;;;;10.84;100.00;102179.78;7375237;19;20014;-71
2022/10/04 07:35:02;;;;;;;29.88;14.75;;;;;;;10.91;100.00;102167.78;7376498;19;20011;-71
2022/10/04 07:37:36;;;;;;;30.65;15.30;;;;;;;10.94;100.00;102170.50;7375136;19;20483;-71
2022/10/04 07:40:20;;;;;;;30.15;15.00;;;;;;;11.01;100.00;102175.09;7371424;19;20254;-70
2022/10/04 07:42:58;;;;;;;;;;;;;;;11.10;100.00;102181.53;7375180;19;20015;-71
2022/10/04 07:45:31;;;;;;;28.25;15.65;;;;;;;11.26;100.00;102180.31;7376986;19;19914;-71
2022/10/04 07:48:12;;;;;;;31.40;16.17;;;;;;;11.51;100.00;102191.56;7375653;19;20344;-71
2022/10/04 07:50:48;;;;;;;28.95;15.07;;;;;;;11.59;100.00;102190.06;7374460;19;20006;-70
2022/10/04 07:53:22;;;;;;;33.03;15.93;;;;;;;11.56;100.00;102197.84;7370877;19;20537;-71
2022/10/04 07:55:57;;;;;;;;;;;;;;;11.55;100.00;102189.06;7374014;19;20112;-69
2022/10/04 07:58:36;;;;;;;36.55;16.25;;;;;;;11.55;100.00;102189.06;7376380;19;19921;-69
2022/10/04 08:01:25;;;;;;;35.20;15.73;;;;;;;11.65;100.00;102187.59;7378318;19;20070;-70
2022/10/04 08:04:29;;;;;;;32.00;15.43;;;;;;;11.64;100.00;102188.44;7373978;19;20554;-70
2022/10/04 08:07:02;;;;;;;29.73;15.63;;;;;;;11.65;100.00;102190.22;7374863;19;20331;-69
2022/10/04 08:09:49;;;;;;;30.73;15.03;;;;;;;11.61;100.00;102196.25;7374933;19;20372;-70
2022/10/04 08:12:26;;;;;;;33.60;15.25;;;;;;;11.98;100.00;102193.91;7373674;19;21078;-70
2022/10/04 08:15:05;;;;;;;29.63;15.40;;;;;;;12.26;100.00;102189.44;7372226;19;20010;-70
2022/10/04 08:17:49;;;;;;;25.88;14.20;;;;;;;12.61;100.00;102178.09;7373702;19;20022;-70
2022/10/04 08:20:36;;;;;;;32.80;15.48;;;;;;;12.74;100.00;102174.91;7370776;19;20006;-70
2022/10/04 08:23:25;;;;;;;26.55;14.45;;;;;;;13.00;100.00;102177.31;7370957;19;20082;-70
2022/10/04 08:26:08;;;;;;;31.55;15.13;;;;;;;13.18;100.00;102172.53;7374399;19;20010;-70
2022/10/04 08:31:42;;;;;;;27.35;13.88;;;;;;;13.49;100.00;102162.69;7372316;19;20013;-69
2022/10/04 08:34:27;;;;;;;23.52;13.05;;;;;;;13.25;100.00;102166.56;7374978;19;20021;-70
2022/10/04 08:37:10;;;;;;;28.40;14.50;;;;;;;13.09;100.00;102169.63;7374148;19;20030;-69
2022/10/04 08:39:55;;;;;;;25.27;12.88;;;;;;;12.95;100.00;102174.56;7372578;19;20019;-69
2022/10/04 08:42:52;;;;;;;27.10;13.80;;;;;;;12.83;100.00;102178.63;7373413;19;20014;-69
2022/10/04 08:45:52;;;;;;;29.48;13.35;;;;;;;12.98;100.00;102173.75;7373266;19;20014;-69
2022/10/04 08:48:37;;;;;;;31.23;13.48;;;;;;;13.09;100.00;102172.28;7373395;19;20014;-69
2022/10/04 08:51:27;;;;;;;31.13;13.35;;;;;;;13.16;100.00;102173.31;7372484;19;21168;-69
2022/10/04 08:54:42;;;;;;;24.88;11.48;;;;;;;13.50;100.00;102177.66;7371398;19;20010;-69
2022/10/04 08:57:38;;;;;;;26.70;12.60;;;;;;;13.58;100.00;102170.78;7371465;19;20007;-69
2022/10/04 09:00:15;;;;;;;23.65;11.98;;;;;;;13.74;100.00;102178.16;7371217;19;20014;-69
2022/10/04 09:03:25;;;;;;;25.65;12.93;;;;;;;13.97;100.00;102174.25;7372517;19;20066;-70
2022/10/04 09:06:10;;;;;;;28.25;12.55;;;;;;;14.10;100.00;102174.50;7371896;19;20481;-69
2022/10/04 09:09:33;;;;;;;22.60;12.30;;;;;;;14.21;100.00;102165.94;7373188;19;20052;-69
2022/10/04 09:12:20;;;;;;;25.92;11.65;;;;;;;14.49;100.00;102170.03;7372302;19;20097;-69
2022/10/04 09:15:15;;;;;;;24.65;12.05;;;;;;;14.68;100.00;102165.94;7373648;19;20014;-69
2022/10/04 09:17:55;;;;;;;22.50;11.02;;;;;;;14.95;100.00;102166.41;7371289;19;20017;-69
2022/10/04 09:20:41;;;;;;;17.58;10.15;;;;;;;14.96;100.00;102162.91;7370322;19;20011;-69
2022/10/04 09:23:42;;;;;;;21.02;11.40;;;;;;;15.08;100.00;102162.22;7372608;19;20014;-69
2022/10/04 09:26:23;;;;;;;19.73;10.40;;;;;;;15.20;100.00;102159.75;7370827;19;20014;-69
2022/10/04 09:29:27;;;;;;;21.23;11.35;;;;;;;15.28;100.00;102159.88;7370665;19;20020;-69
2022/10/04 09:32:24;;;;;;;20.52;9.52;;;;;;;15.42;100.00;102138.94;7367864;19;20014;-69
2022/10/04 09:35:14;;;;;;;21.23;9.30;;;;;;;15.84;100.00;102130.69;7371576;19;20010;-69
2022/10/04 09:38:03;;;;;;;16.98;9.45;;;;;;;15.64;100.00;102126.03;7369141;19;20044;-69
2022/10/04 09:41:15;;;;;;;18.95;8.82;;;;;;;15.69;100.00;102120.78;7369814;19;20021;-69
2022/10/04 09:44:23;;;;;;;20.02;10.05;;;;;;;15.20;100.00;102114.84;7364977;19;20018;-69
2022/10/04 09:47:30;;;;;;;16.92;9.15;;;;;;;15.18;100.00;102129.78;7370989;19;20017;-69
2022/10/04 09:50:30;;;;;;;18.88;9.07;;;;;;;15.47;100.00;102134.59;7369865;19;20015;-69
2022/10/04 09:53:20;;;;;;;24.35;10.00;;;;;;;15.37;100.00;102144.16;7368111;19;20708;-69
2022/10/04 09:56:21;;;;;;;18.95;9.40;;;;;;;15.85;100.00;102143.03;7370737;19;20015;-69
2022/10/04 09:59:17;;;;;;;26.65;10.25;;;;;;;16.13;100.00;102144.25;7367258;19;20015;-69
2022/10/04 10:02:05;;;;;;;20.15;9.77;;;;;;;16.30;100.00;102142.66;7368829;19;20014;-69
2022/10/04 10:04:47;;;;;;;21.33;8.75;;;;;;;16.91;100.00;102140.59;7369514;19;20729;-69
2022/10/04 10:07:39;;;;;;;22.30;9.85;;;;;;;16.52;100.00;102142.00;7369083;19;20021;-69
2022/10/04 10:16:28;;;;;;;17.58;8.43;;;;;;;16.22;100.00;102139.94;7366755;19;20040;-70
2022/10/04 10:19:10;;;;;;;17.27;8.48;;;;;;;16.50;100.00;102137.56;7366827;19;20502;-70
2022/10/04 10:22:02;;;;;;;18.45;8.57;;;;;;;16.60;100.00;102134.13;7367768;19;20023;-68
2022/10/04 10:25:03;;;;;;;18.98;7.95;;;;;;;17.18;100.00;102127.53;7369205;19;20777;-71
2022/10/04 10:28:13;;;;;;;20.90;9.13;;;;;;;16.66;100.00;102131.53;7365986;19;20027;-69
2022/10/04 10:30:58;;;;;;;15.45;8.38;;;;;;;17.08;100.00;102125.69;7366872;19;20019;-70
2022/10/04 10:34:14;;;;;;;14.18;8.45;;;;;;;16.72;100.00;102125.41;7367068;19;20019;-71
2022/10/04 10:36:59;;;;;;;17.77;9.00;;;;;;;17.04;100.00;102118.59;7365918;19;20838;-69
2022/10/04 10:39:51;;;;;;;16.55;8.95;;;;;;;16.88;100.00;102114.06;7368868;19;20010;-69
2022/10/04 10:42:49;;;;;;;17.10;8.38;;;;;;;16.92;100.00;102108.81;7370259;19;20015;-69
2022/10/04 10:45:37;;;;;;;12.77;7.57;;;;;;;17.01;100.00;102118.59;7369508;19;20028;-70
2022/10/04 10:48:16;;;;;;;13.70;7.30;;;;;;;17.12;100.00;102111.59;7369499;19;20034;-70
2022/10/04 10:51:02;;;;;;;15.75;7.55;;;;;;;17.32;100.00;102122.31;7368965;19;20017;-70
2022/10/04 10:54:12;;;;;;;16.63;8.40;;;;;;;17.32;100.00;102123.22;7364441;19;20031;-70
2022/10/04 10:56:52;;;;;;;15.93;7.10;;;;;;;17.49;100.00;102123.31;7374293;19;20007;-70
2022/10/04 10:59:51;;;;;;;17.30;8.35;;;;;;;17.47;100.00;102122.41;7375313;19;20499;-70
2022/10/04 11:02:42;;;;;;;15.48;6.93;;;;;;;18.02;100.00;102113.78;7374507;19;20018;-70
2022/10/04 11:06:02;;;;;;;16.90;8.30;;;;;;;17.66;100.00;102117.22;7377617;19;20011;-70
2022/10/04 11:09:01;;;;;;;15.15;8.27;;;;;;;17.56;100.00;102117.16;7373618;19;20109;-70
2022/10/04 11:11:49;;;;;;;18.90;8.25;;;;;;;17.42;100.00;102128.56;7372689;19;20010;-70
2022/10/04 11:14:55;;;;;;;16.23;7.90;;;;;;;17.43;100.00;102122.38;7377537;19;20006;-70
2022/10/04 11:17:45;;;;;;;15.75;7.85;;;;;;;17.35;100.00;102130.28;7375023;19;20015;-70
2022/10/04 11:20:50;;;;;;;14.98;8.32;;;;;;;17.10;100.00;102144.28;7375782;19;20558;-70
2022/10/04 11:23:53;;;;;;;19.05;9.60;;;;;;;17.10;100.00;102129.25;7372946;19;20013;-70
2022/10/04 11:26:52;;;;;;;16.92;8.27;;;;;;;17.30;100.00;102118.78;7376616;19;20015;-70
2022/10/04 11:29:38;;;;;;;17.70;8.38;;;;;;;17.32;100.00;102120.56;7371533;19;20014;-71
2022/10/04 11:32:33;;;;;;;15.27;7.85;;;;;;;17.70;100.00;102122.53;7373248;19;20336;-71
2022/10/04 11:35:36;;;;;;;17.60;8.00;;;;;;;17.70;100.00;102114.56;7374299;19;20014;-71
2022/10/04 11:38:13;;;;;;;19.53;9.50;;;;;;;17.72;100.00;102114.56;7374047;19;20025;-69
2022/10/04 11:41:10;;;;;;;15.60;8.35;;;;;;;17.66;100.00;102115.47;7374922;19;20282;-71
2022/10/04 11:44:04;;;;;;;18.63;9.35;;;;;;;17.15;100.00;102105.44;7375099;19;20015;-71
2022/10/04 11:46:45;;;;;;;17.05;8.35;;;;;;;17.18;100.00;102111.63;7369806;19;20006;-70
2022/10/04 11:49:35;;;;;;;15.52;8.07;;;;;;;17.49;100.00;102110.03;7374080;19;20018;-69
2022/10/04 11:52:42;;;;;;;17.65;9.27;;;;;;;17.48;100.00;102104.72;7373229;19;20014;-69
2022/10/04 11:55:44;;;;;;;16.15;9.38;;;;;;;17.64;100.00;102102.16;7373414;19;20011;-69
2022/10/04 11:58:20;;;;;;;15.98;8.32;;;;;;;17.63;100.00;102088.88;7374709;19;20018;-71
2022/10/04 12:01:14;;;;;;;13.15;7.57;;;;;;;17.99;100.00;102080.16;7373523;19;20011;-69
2022/10/04 12:04:13;;;;;;;14.52;8.63;;;;;;;17.92;100.00;102084.56;7374888;19;20034;-68
2022/10/04 12:06:57;;;;;;;14.40;8.75;;;;;;;18.28;100.00;102085.53;7371213;19;20385;-71
2022/10/04 12:09:35;;;;;;;16.15;8.75;;;;;;;18.26;100.00;102081.97;7370251;19;20017;-69
2022/10/04 12:12:40;;;;;;;16.75;8.00;;;;;;;18.07;100.00;102088.13;7372594;19;20082;-72
2022/10/04 12:15:40;;;;;;;15.80;8.50;;;;;;;17.66;100.00;102086.28;7372607;19;20033;-71
2022/10/04 12:18:31;;;;;;;14.38;7.57;;;;;;;17.97;100.00;102084.56;7366308;19;20482;-72
2022/10/04 12:21:39;;;;;;;16.95;7.32;;;;;;;17.84;100.00;102073.03;7365821;19;20014;-73
2022/10/04 12:24:47;;;;;;;14.40;8.32;;;;;;;18.05;100.00;102066.91;7365146;19;20010;-72
2022/10/04 12:28:10;;;;;;;14.80;7.88;;;;;;;18.42;100.00;102057.22;7372724;19;20007;-72
2022/10/04 12:30:57;;;;;;;13.80;7.82;;;;;;;18.39;100.00;102049.25;7366999;19;20027;-72
2022/10/04 12:33:38;;;;;;;16.63;8.80;;;;;;;18.47;100.00;102044.81;7367239;19;20070;-73
2022/10/04 12:36:26;;;;;;;16.50;7.75;;;;;;;18.27;100.00;102052.78;7358791;19;20007;-73